sensor_id;sensor_type;location;lat;lon;timestamp;P1;durP1;ratioP1;P2;durP2;ratioP2
31114;SDS011;17764;47.152;9.828;2023-02-21T00:01:32;5.10;;;3.53;;
31114;SDS011;17764;47.152;9.828;2023-02-21T00:04:16;4.83;;;3.40;;
31114;SDS011;17764;47.152;9.828;2023-02-21T00:07:01;5.50;;;3.57;;
31114;SDS011;17764;47.152;9.828;2023-02-21T00:09:46;4.93;;;2.97;;
31114;SDS011;17764;47.152;9.828;2023-02-21T00:12:31;6.90;;;3.37;;
31114;SDS011;17764;47.152;9.828;2023-02-21T00:15:15;7.17;;;3.30;;
31114;SDS011;17764;47.152;9.828;2023-02-21T00:18:00;5.70;;;3.07;;
31114;SDS011;17764;47.152;9.828;2023-02-21T00:20:44;4.33;;;2.80;;
31114;SDS011;17764;47.152;9.828;2023-02-21T00:23:32;3.90;;;2.70;;
31114;SDS011;17764;47.152;9.828;2023-02-21T00:26:17;4.80;;;2.87;;
31114;SDS011;17764;47.152;9.828;2023-02-21T00:29:02;4.37;;;2.83;;
31114;SDS011;17764;47.152;9.828;2023-02-21T00:31:47;5.37;;;2.83;;
31114;SDS011;17764;47.152;9.828;2023-02-21T00:34:31;4.73;;;2.90;;
31114;SDS011;17764;47.152;9.828;2023-02-21T00:37:16;4.90;;;2.40;;
31114;SDS011;17764;47.152;9.828;2023-02-21T00:40:01;5.63;;;3.30;;
31114;SDS011;17764;47.152;9.828;2023-02-21T00:42:45;4.53;;;2.97;;
31114;SDS011;17764;47.152;9.828;2023-02-21T00:45:30;6.27;;;3.23;;
31114;SDS011;17764;47.152;9.828;2023-02-21T00:48:18;5.73;;;2.87;;
31114;SDS011;17764;47.152;9.828;2023-02-21T00:51:03;3.50;;;2.60;;
31114;SDS011;17764;47.152;9.828;2023-02-21T00:53:48;4.23;;;2.40;;
31114;SDS011;17764;47.152;9.828;2023-02-21T00:56:32;4.27;;;2.83;;
31114;SDS011;17764;47.152;9.828;2023-02-21T00:59:16;5.17;;;3.03;;
31114;SDS011;17764;47.152;9.828;2023-02-21T01:02:00;3.90;;;2.73;;
31114;SDS011;17764;47.152;9.828;2023-02-21T01:04:45;5.27;;;2.63;;
31114;SDS011;17764;47.152;9.828;2023-02-21T01:07:30;4.03;;;2.97;;
31114;SDS011;17764;47.152;9.828;2023-02-21T01:10:14;7.53;;;3.10;;
31114;SDS011;17764;47.152;9.828;2023-02-21T01:12:59;6.40;;;3.03;;
31114;SDS011;17764;47.152;9.828;2023-02-21T01:15:43;5.10;;;3.10;;
31114;SDS011;17764;47.152;9.828;2023-02-21T01:18:27;5.60;;;2.97;;
31114;SDS011;17764;47.152;9.828;2023-02-21T01:21:15;5.23;;;2.87;;
31114;SDS011;17764;47.152;9.828;2023-02-21T01:24:01;4.23;;;2.80;;
31114;SDS011;17764;47.152;9.828;2023-02-21T01:26:45;6.10;;;3.00;;
31114;SDS011;17764;47.152;9.828;2023-02-21T01:29:29;5.10;;;3.03;;
31114;SDS011;17764;47.152;9.828;2023-02-21T01:32:14;4.03;;;2.63;;
31114;SDS011;17764;47.152;9.828;2023-02-21T01:34:58;3.43;;;2.50;;
31114;SDS011;17764;47.152;9.828;2023-02-21T01:37:43;4.00;;;2.80;;
31114;SDS011;17764;47.152;9.828;2023-02-21T01:40:27;5.27;;;2.90;;
31114;SDS011;17764;47.152;9.828;2023-02-21T01:43:19;4.33;;;2.73;;
31114;SDS011;17764;47.152;9.828;2023-02-21T01:46:05;5.07;;;2.47;;
31114;SDS011;17764;47.152;9.828;2023-02-21T01:48:50;3.13;;;2.20;;
31114;SDS011;17764;47.152;9.828;2023-02-21T01:51:38;3.73;;;2.40;;
31114;SDS011;17764;47.152;9.828;2023-02-21T01:54:23;4.13;;;2.10;;
31114;SDS011;17764;47.152;9.828;2023-02-21T01:57:10;3.77;;;2.17;;
31114;SDS011;17764;47.152;9.828;2023-02-21T01:59:55;4.43;;;1.93;;
31114;SDS011;17764;47.152;9.828;2023-02-21T02:05:25;2.40;;;2.10;;
31114;SDS011;17764;47.152;9.828;2023-02-21T02:08:11;3.40;;;1.90;;
31114;SDS011;17764;47.152;9.828;2023-02-21T02:11:03;4.03;;;2.20;;
31114;SDS011;17764;47.152;9.828;2023-02-21T02:14:07;3.37;;;1.80;;
31114;SDS011;17764;47.152;9.828;2023-02-21T02:17:07;4.10;;;1.50;;
31114;SDS011;17764;47.152;9.828;2023-02-21T02:19:45;4.50;;;1.90;;
31114;SDS011;17764;47.152;9.828;2023-02-21T02:27:46;3.67;;;1.87;;
31114;SDS011;17764;47.152;9.828;2023-02-21T02:35:49;3.23;;;1.40;;
31114;SDS011;17764;47.152;9.828;2023-02-21T02:38:22;3.83;;;1.63;;
31114;SDS011;17764;47.152;9.828;2023-02-21T02:41:03;2.53;;;1.67;;
31114;SDS011;17764;47.152;9.828;2023-02-21T02:48:49;3.63;;;1.80;;
31114;SDS011;17764;47.152;9.828;2023-02-21T02:51:38;2.73;;;1.50;;
31114;SDS011;17764;47.152;9.828;2023-02-21T02:54:04;2.23;;;1.40;;
31114;SDS011;17764;47.152;9.828;2023-02-21T02:56:30;3.33;;;1.70;;
31114;SDS011;17764;47.152;9.828;2023-02-21T02:58:59;5.30;;;1.80;;
31114;SDS011;17764;47.152;9.828;2023-02-21T03:06:53;3.23;;;1.30;;
31114;SDS011;17764;47.152;9.828;2023-02-21T03:09:28;1.83;;;1.40;;
31114;SDS011;17764;47.152;9.828;2023-02-21T03:12:12;1.77;;;1.43;;
31114;SDS011;17764;47.152;9.828;2023-02-21T03:14:45;2.47;;;1.47;;
31114;SDS011;17764;47.152;9.828;2023-02-21T03:17:11;2.30;;;1.53;;
31114;SDS011;17764;47.152;9.828;2023-02-21T03:19:39;3.67;;;1.63;;
31114;SDS011;17764;47.152;9.828;2023-02-21T03:22:09;3.00;;;1.80;;
31114;SDS011;17764;47.152;9.828;2023-02-21T03:24:36;2.37;;;1.60;;
31114;SDS011;17764;47.152;9.828;2023-02-21T03:27:05;4.10;;;1.70;;
31114;SDS011;17764;47.152;9.828;2023-02-21T03:29:32;2.77;;;1.40;;
31114;SDS011;17764;47.152;9.828;2023-02-21T03:32:00;2.97;;;1.60;;
31114;SDS011;17764;47.152;9.828;2023-02-21T03:34:37;3.40;;;1.60;;
31114;SDS011;17764;47.152;9.828;2023-02-21T03:37:07;3.40;;;1.03;;
31114;SDS011;17764;47.152;9.828;2023-02-21T03:39:33;3.93;;;1.20;;
31114;SDS011;17764;47.152;9.828;2023-02-21T03:42:02;1.70;;;0.93;;
31114;SDS011;17764;47.152;9.828;2023-02-21T03:44:28;4.63;;;1.17;;
31114;SDS011;17764;47.152;9.828;2023-02-21T03:46:53;2.40;;;1.23;;
31114;SDS011;17764;47.152;9.828;2023-02-21T03:49:19;4.90;;;1.30;;
31114;SDS011;17764;47.152;9.828;2023-02-21T03:51:45;1.40;;;0.90;;
31114;SDS011;17764;47.152;9.828;2023-02-21T03:54:11;5.13;;;1.20;;
31114;SDS011;17764;47.152;9.828;2023-02-21T03:56:37;3.60;;;1.37;;
31114;SDS011;17764;47.152;9.828;2023-02-21T03:59:03;2.53;;;1.10;;
31114;SDS011;17764;47.152;9.828;2023-02-21T04:01:28;5.67;;;1.30;;
31114;SDS011;17764;47.152;9.828;2023-02-21T04:03:54;2.93;;;1.17;;
31114;SDS011;17764;47.152;9.828;2023-02-21T04:06:20;2.80;;;1.17;;
31114;SDS011;17764;47.152;9.828;2023-02-21T04:08:49;2.33;;;1.27;;
31114;SDS011;17764;47.152;9.828;2023-02-21T04:11:17;2.40;;;1.43;;
31114;SDS011;17764;47.152;9.828;2023-02-21T04:13:45;3.63;;;2.20;;
31114;SDS011;17764;47.152;9.828;2023-02-21T04:16:10;3.60;;;2.17;;
31114;SDS011;17764;47.152;9.828;2023-02-21T04:18:36;3.23;;;2.20;;
31114;SDS011;17764;47.152;9.828;2023-02-21T04:21:02;3.23;;;2.00;;
31114;SDS011;17764;47.152;9.828;2023-02-21T04:23:28;2.63;;;1.70;;
31114;SDS011;17764;47.152;9.828;2023-02-21T04:25:54;4.60;;;1.60;;
31114;SDS011;17764;47.152;9.828;2023-02-21T04:28:20;3.03;;;1.80;;
31114;SDS011;17764;47.152;9.828;2023-02-21T04:30:46;3.50;;;1.80;;
31114;SDS011;17764;47.152;9.828;2023-02-21T04:33:13;4.63;;;1.60;;
31114;SDS011;17764;47.152;9.828;2023-02-21T04:35:39;4.23;;;2.33;;
31114;SDS011;17764;47.152;9.828;2023-02-21T04:38:05;3.73;;;2.07;;
31114;SDS011;17764;47.152;9.828;2023-02-21T04:40:31;4.57;;;2.67;;
31114;SDS011;17764;47.152;9.828;2023-02-21T04:42:56;4.73;;;2.77;;
31114;SDS011;17764;47.152;9.828;2023-02-21T04:45:22;4.33;;;2.47;;
31114;SDS011;17764;47.152;9.828;2023-02-21T04:47:48;3.90;;;2.50;;
31114;SDS011;17764;47.152;9.828;2023-02-21T04:50:14;3.23;;;2.27;;
31114;SDS011;17764;47.152;9.828;2023-02-21T04:52:40;4.47;;;2.80;;
31114;SDS011;17764;47.152;9.828;2023-02-21T04:55:07;3.77;;;2.30;;
31114;SDS011;17764;47.152;9.828;2023-02-21T04:57:33;3.43;;;2.43;;
31114;SDS011;17764;47.152;9.828;2023-02-21T04:59:59;3.37;;;2.30;;
31114;SDS011;17764;47.152;9.828;2023-02-21T05:02:26;3.77;;;2.63;;
31114;SDS011;17764;47.152;9.828;2023-02-21T05:04:53;4.50;;;2.57;;
31114;SDS011;17764;47.152;9.828;2023-02-21T05:07:18;3.93;;;2.60;;
31114;SDS011;17764;47.152;9.828;2023-02-21T05:09:44;4.90;;;2.70;;
31114;SDS011;17764;47.152;9.828;2023-02-21T05:12:10;3.87;;;2.57;;
31114;SDS011;17764;47.152;9.828;2023-02-21T05:14:37;5.93;;;2.43;;
31114;SDS011;17764;47.152;9.828;2023-02-21T05:17:03;5.10;;;2.57;;
31114;SDS011;17764;47.152;9.828;2023-02-21T05:19:29;5.20;;;2.53;;
31114;SDS011;17764;47.152;9.828;2023-02-21T05:21:56;5.23;;;2.73;;
31114;SDS011;17764;47.152;9.828;2023-02-21T05:24:23;3.57;;;2.07;;
31114;SDS011;17764;47.152;9.828;2023-02-21T05:26:49;6.17;;;2.47;;
31114;SDS011;17764;47.152;9.828;2023-02-21T05:29:15;4.70;;;2.20;;
31114;SDS011;17764;47.152;9.828;2023-02-21T05:31:42;3.57;;;2.37;;
31114;SDS011;17764;47.152;9.828;2023-02-21T05:34:08;4.83;;;2.53;;
31114;SDS011;17764;47.152;9.828;2023-02-21T05:36:34;4.50;;;2.60;;
31114;SDS011;17764;47.152;9.828;2023-02-21T05:39:01;5.97;;;2.80;;
31114;SDS011;17764;47.152;9.828;2023-02-21T05:41:27;6.23;;;2.73;;
31114;SDS011;17764;47.152;9.828;2023-02-21T05:43:54;4.27;;;2.80;;
31114;SDS011;17764;47.152;9.828;2023-02-21T05:48:46;5.50;;;2.90;;
31114;SDS011;17764;47.152;9.828;2023-02-21T05:51:14;4.20;;;3.00;;
31114;SDS011;17764;47.152;9.828;2023-02-21T05:53:40;5.40;;;3.57;;
31114;SDS011;17764;47.152;9.828;2023-02-21T05:56:07;5.23;;;3.87;;
31114;SDS011;17764;47.152;9.828;2023-02-21T05:58:33;6.73;;;4.53;;
31114;SDS011;17764;47.152;9.828;2023-02-21T06:00:58;6.60;;;4.97;;
31114;SDS011;17764;47.152;9.828;2023-02-21T06:03:24;8.17;;;6.63;;
31114;SDS011;17764;47.152;9.828;2023-02-21T06:05:50;8.77;;;7.07;;
31114;SDS011;17764;47.152;9.828;2023-02-21T06:08:16;10.50;;;7.47;;
31114;SDS011;17764;47.152;9.828;2023-02-21T06:10:42;9.00;;;7.87;;
31114;SDS011;17764;47.152;9.828;2023-02-21T06:13:08;9.90;;;7.50;;
31114;SDS011;17764;47.152;9.828;2023-02-21T06:15:33;10.47;;;7.30;;
31114;SDS011;17764;47.152;9.828;2023-02-21T06:17:59;8.83;;;7.70;;
31114;SDS011;17764;47.152;9.828;2023-02-21T06:20:25;9.53;;;7.17;;
31114;SDS011;17764;47.152;9.828;2023-02-21T06:22:52;8.80;;;7.00;;
31114;SDS011;17764;47.152;9.828;2023-02-21T06:25:20;10.00;;;7.80;;
31114;SDS011;17764;47.152;9.828;2023-02-21T06:27:46;9.70;;;6.97;;
31114;SDS011;17764;47.152;9.828;2023-02-21T06:30:13;13.27;;;6.63;;
31114;SDS011;17764;47.152;9.828;2023-02-21T06:32:39;14.33;;;6.30;;
31114;SDS011;17764;47.152;9.828;2023-02-21T06:35:06;10.43;;;6.20;;
31114;SDS011;17764;47.152;9.828;2023-02-21T06:37:32;8.33;;;5.90;;
31114;SDS011;17764;47.152;9.828;2023-02-21T06:39:57;7.87;;;5.37;;
31114;SDS011;17764;47.152;9.828;2023-02-21T06:42:25;10.83;;;6.40;;
31114;SDS011;17764;47.152;9.828;2023-02-21T06:44:52;8.53;;;5.80;;
31114;SDS011;17764;47.152;9.828;2023-02-21T06:47:19;10.17;;;6.10;;
31114;SDS011;17764;47.152;9.828;2023-02-21T06:49:44;12.90;;;5.87;;
31114;SDS011;17764;47.152;9.828;2023-02-21T06:52:10;10.87;;;5.30;;
31114;SDS011;17764;47.152;9.828;2023-02-21T06:54:36;11.30;;;5.43;;
31114;SDS011;17764;47.152;9.828;2023-02-21T06:57:02;8.30;;;5.23;;
31114;SDS011;17764;47.152;9.828;2023-02-21T06:59:29;12.97;;;5.80;;
31114;SDS011;17764;47.152;9.828;2023-02-21T07:01:55;10.37;;;6.00;;
31114;SDS011;17764;47.152;9.828;2023-02-21T07:04:21;15.27;;;5.90;;
31114;SDS011;17764;47.152;9.828;2023-02-21T07:06:48;9.67;;;5.63;;
31114;SDS011;17764;47.152;9.828;2023-02-21T07:09:14;12.63;;;5.63;;
31114;SDS011;17764;47.152;9.828;2023-02-21T07:11:40;10.67;;;5.13;;
31114;SDS011;17764;47.152;9.828;2023-02-21T07:14:06;12.33;;;5.60;;
31114;SDS011;17764;47.152;9.828;2023-02-21T07:16:32;13.27;;;5.40;;
31114;SDS011;17764;47.152;9.828;2023-02-21T07:18:58;10.87;;;5.07;;
31114;SDS011;17764;47.152;9.828;2023-02-21T07:21:25;9.80;;;5.23;;
31114;SDS011;17764;47.152;9.828;2023-02-21T07:23:51;9.40;;;5.30;;
31114;SDS011;17764;47.152;9.828;2023-02-21T07:26:17;8.03;;;4.70;;
31114;SDS011;17764;47.152;9.828;2023-02-21T07:28:43;16.33;;;5.33;;
31114;SDS011;17764;47.152;9.828;2023-02-21T07:31:11;7.23;;;4.10;;
31114;SDS011;17764;47.152;9.828;2023-02-21T07:33:37;7.63;;;4.30;;
31114;SDS011;17764;47.152;9.828;2023-02-21T07:36:04;9.37;;;4.23;;
31114;SDS011;17764;47.152;9.828;2023-02-21T07:38:30;8.53;;;4.00;;
31114;SDS011;17764;47.152;9.828;2023-02-21T07:40:57;6.63;;;4.40;;
31114;SDS011;17764;47.152;9.828;2023-02-21T07:43:24;9.17;;;3.90;;
31114;SDS011;17764;47.152;9.828;2023-02-21T07:45:50;8.33;;;4.17;;
31114;SDS011;17764;47.152;9.828;2023-02-21T07:48:16;5.80;;;4.00;;
31114;SDS011;17764;47.152;9.828;2023-02-21T07:50:43;8.10;;;3.40;;
31114;SDS011;17764;47.152;9.828;2023-02-21T07:53:09;5.80;;;3.40;;
31114;SDS011;17764;47.152;9.828;2023-02-21T07:55:36;6.33;;;3.30;;
31114;SDS011;17764;47.152;9.828;2023-02-21T07:58:02;4.07;;;2.57;;
31114;SDS011;17764;47.152;9.828;2023-02-21T08:00:28;5.57;;;2.97;;
31114;SDS011;17764;47.152;9.828;2023-02-21T08:02:54;4.97;;;2.63;;
31114;SDS011;17764;47.152;9.828;2023-02-21T08:05:20;4.27;;;2.57;;
31114;SDS011;17764;47.152;9.828;2023-02-21T08:07:46;7.17;;;2.67;;
31114;SDS011;17764;47.152;9.828;2023-02-21T08:10:17;8.53;;;3.83;;
31114;SDS011;17764;47.152;9.828;2023-02-21T08:12:43;8.93;;;3.40;;
31114;SDS011;17764;47.152;9.828;2023-02-21T08:15:09;6.07;;;3.07;;
31114;SDS011;17764;47.152;9.828;2023-02-21T08:17:35;6.77;;;3.10;;
31114;SDS011;17764;47.152;9.828;2023-02-21T08:20:02;6.40;;;3.07;;
31114;SDS011;17764;47.152;9.828;2023-02-21T08:22:28;6.13;;;3.47;;
31114;SDS011;17764;47.152;9.828;2023-02-21T08:24:54;6.80;;;3.50;;
31114;SDS011;17764;47.152;9.828;2023-02-21T08:27:20;9.47;;;3.20;;
31114;SDS011;17764;47.152;9.828;2023-02-21T08:29:48;6.30;;;3.67;;
31114;SDS011;17764;47.152;9.828;2023-02-21T08:32:14;9.23;;;4.60;;
31114;SDS011;17764;47.152;9.828;2023-02-21T08:34:43;8.37;;;3.90;;
31114;SDS011;17764;47.152;9.828;2023-02-21T08:37:09;9.93;;;4.73;;
31114;SDS011;17764;47.152;9.828;2023-02-21T08:39:43;6.03;;;4.13;;
31114;SDS011;17764;47.152;9.828;2023-02-21T08:42:10;8.40;;;3.70;;
31114;SDS011;17764;47.152;9.828;2023-02-21T08:44:36;6.50;;;3.70;;
31114;SDS011;17764;47.152;9.828;2023-02-21T08:47:02;6.27;;;3.40;;
31114;SDS011;17764;47.152;9.828;2023-02-21T08:49:28;5.83;;;3.20;;
31114;SDS011;17764;47.152;9.828;2023-02-21T08:51:54;7.43;;;3.40;;
31114;SDS011;17764;47.152;9.828;2023-02-21T08:54:20;5.37;;;2.67;;
31114;SDS011;17764;47.152;9.828;2023-02-21T08:56:46;5.90;;;2.70;;
31114;SDS011;17764;47.152;9.828;2023-02-21T08:59:13;9.27;;;2.87;;
31114;SDS011;17764;47.152;9.828;2023-02-21T09:01:39;5.00;;;2.87;;
31114;SDS011;17764;47.152;9.828;2023-02-21T09:04:05;5.93;;;2.57;;
31114;SDS011;17764;47.152;9.828;2023-02-21T09:06:31;5.47;;;2.53;;
31114;SDS011;17764;47.152;9.828;2023-02-21T09:08:57;10.37;;;2.87;;
31114;SDS011;17764;47.152;9.828;2023-02-21T09:11:23;5.60;;;2.73;;
31114;SDS011;17764;47.152;9.828;2023-02-21T09:13:49;7.83;;;2.40;;
31114;SDS011;17764;47.152;9.828;2023-02-21T09:16:19;12.47;;;3.00;;
31114;SDS011;17764;47.152;9.828;2023-02-21T09:18:51;6.93;;;3.10;;
31114;SDS011;17764;47.152;9.828;2023-02-21T09:21:18;6.80;;;3.03;;
31114;SDS011;17764;47.152;9.828;2023-02-21T09:23:46;7.67;;;2.90;;
31114;SDS011;17764;47.152;9.828;2023-02-21T09:26:12;9.70;;;3.00;;
31114;SDS011;17764;47.152;9.828;2023-02-21T09:28:38;7.80;;;2.93;;
31114;SDS011;17764;47.152;9.828;2023-02-21T09:31:07;5.00;;;2.80;;
31114;SDS011;17764;47.152;9.828;2023-02-21T09:33:35;9.57;;;4.00;;
31114;SDS011;17764;47.152;9.828;2023-02-21T09:36:05;8.50;;;3.37;;
31114;SDS011;17764;47.152;9.828;2023-02-21T09:38:34;5.20;;;3.00;;
31114;SDS011;17764;47.152;9.828;2023-02-21T09:41:00;5.57;;;2.27;;
31114;SDS011;17764;47.152;9.828;2023-02-21T09:43:50;7.03;;;2.30;;
31114;SDS011;17764;47.152;9.828;2023-02-21T09:46:20;8.83;;;2.70;;
31114;SDS011;17764;47.152;9.828;2023-02-21T09:48:49;7.77;;;2.80;;
31114;SDS011;17764;47.152;9.828;2023-02-21T09:51:16;6.13;;;2.00;;
31114;SDS011;17764;47.152;9.828;2023-02-21T09:53:43;5.67;;;1.90;;
31114;SDS011;17764;47.152;9.828;2023-02-21T09:56:24;7.47;;;1.97;;
31114;SDS011;17764;47.152;9.828;2023-02-21T09:58:52;6.33;;;2.10;;
31114;SDS011;17764;47.152;9.828;2023-02-21T10:07:06;6.37;;;1.30;;
31114;SDS011;17764;47.152;9.828;2023-02-21T10:09:46;4.93;;;1.53;;
31114;SDS011;17764;47.152;9.828;2023-02-21T10:12:30;2.10;;;1.30;;
31114;SDS011;17764;47.152;9.828;2023-02-21T10:17:58;3.33;;;1.50;;
31114;SDS011;17764;47.152;9.828;2023-02-21T10:23:02;5.13;;;0.97;;
31114;SDS011;17764;47.152;9.828;2023-02-21T10:25:31;4.20;;;1.30;;
31114;SDS011;17764;47.152;9.828;2023-02-21T10:27:58;4.23;;;1.10;;
31114;SDS011;17764;47.152;9.828;2023-02-21T10:30:26;3.40;;;1.13;;
31114;SDS011;17764;47.152;9.828;2023-02-21T10:32:53;3.77;;;1.20;;
31114;SDS011;17764;47.152;9.828;2023-02-21T10:35:19;4.10;;;1.27;;
31114;SDS011;17764;47.152;9.828;2023-02-21T10:37:50;4.03;;;1.30;;
31114;SDS011;17764;47.152;9.828;2023-02-21T10:40:34;6.10;;;1.20;;
31114;SDS011;17764;47.152;9.828;2023-02-21T10:45:30;4.23;;;1.37;;
31114;SDS011;17764;47.152;9.828;2023-02-21T10:48:00;4.83;;;1.30;;
31114;SDS011;17764;47.152;9.828;2023-02-21T10:50:38;6.70;;;1.60;;
31114;SDS011;17764;47.152;9.828;2023-02-21T10:53:05;5.90;;;1.20;;
31114;SDS011;17764;47.152;9.828;2023-02-21T10:55:33;5.87;;;1.50;;
31114;SDS011;17764;47.152;9.828;2023-02-21T10:58:09;5.40;;;1.50;;
31114;SDS011;17764;47.152;9.828;2023-02-21T11:00:37;4.13;;;1.20;;
31114;SDS011;17764;47.152;9.828;2023-02-21T11:03:12;4.83;;;1.47;;
31114;SDS011;17764;47.152;9.828;2023-02-21T11:05:50;3.80;;;1.40;;
31114;SDS011;17764;47.152;9.828;2023-02-21T11:08:16;4.80;;;1.97;;
31114;SDS011;17764;47.152;9.828;2023-02-21T11:11:06;3.67;;;1.27;;
31114;SDS011;17764;47.152;9.828;2023-02-21T11:13:32;5.83;;;1.60;;
31114;SDS011;17764;47.152;9.828;2023-02-21T11:16:15;4.13;;;1.20;;
31114;SDS011;17764;47.152;9.828;2023-02-21T11:18:42;4.10;;;1.60;;
31114;SDS011;17764;47.152;9.828;2023-02-21T11:21:11;5.57;;;1.30;;
31114;SDS011;17764;47.152;9.828;2023-02-21T11:23:42;3.60;;;1.20;;
31114;SDS011;17764;47.152;9.828;2023-02-21T11:26:10;3.37;;;1.37;;
31114;SDS011;17764;47.152;9.828;2023-02-21T11:28:37;3.90;;;1.60;;
31114;SDS011;17764;47.152;9.828;2023-02-21T11:31:06;3.93;;;1.43;;
31114;SDS011;17764;47.152;9.828;2023-02-21T11:33:36;6.73;;;1.90;;
31114;SDS011;17764;47.152;9.828;2023-02-21T11:38:36;7.53;;;1.70;;
31114;SDS011;17764;47.152;9.828;2023-02-21T11:41:50;6.00;;;1.50;;
31114;SDS011;17764;47.152;9.828;2023-02-21T11:43:54;8.27;;;2.27;;
31114;SDS011;17764;47.152;9.828;2023-02-21T11:49:36;5.97;;;1.80;;
31114;SDS011;17764;47.152;9.828;2023-02-21T11:54:05;4.77;;;1.53;;
31114;SDS011;17764;47.152;9.828;2023-02-21T12:01:48;4.00;;;1.50;;
31114;SDS011;17764;47.152;9.828;2023-02-21T12:04:22;2.97;;;1.37;;
31114;SDS011;17764;47.152;9.828;2023-02-21T12:07:11;5.10;;;1.30;;
31114;SDS011;17764;47.152;9.828;2023-02-21T12:20:57;4.53;;;1.03;;
31114;SDS011;17764;47.152;9.828;2023-02-21T12:23:14;2.50;;;1.00;;
31114;SDS011;17764;47.152;9.828;2023-02-21T12:30:48;3.80;;;1.03;;
31114;SDS011;17764;47.152;9.828;2023-02-21T12:36:14;3.27;;;1.20;;
31114;SDS011;17764;47.152;9.828;2023-02-21T12:44:31;6.73;;;1.43;;
31114;SDS011;17764;47.152;9.828;2023-02-21T12:47:19;2.43;;;1.23;;
31114;SDS011;17764;47.152;9.828;2023-02-21T12:50:20;2.80;;;0.97;;
31114;SDS011;17764;47.152;9.828;2023-02-21T12:55:35;3.50;;;1.10;;
31114;SDS011;17764;47.152;9.828;2023-02-21T12:58:22;2.10;;;0.83;;
31114;SDS011;17764;47.152;9.828;2023-02-21T13:00:51;2.73;;;0.97;;
31114;SDS011;17764;47.152;9.828;2023-02-21T13:11:23;2.83;;;0.93;;
31114;SDS011;17764;47.152;9.828;2023-02-21T13:13:55;1.80;;;0.70;;
31114;SDS011;17764;47.152;9.828;2023-02-21T13:16:22;3.90;;;1.00;;
31114;SDS011;17764;47.152;9.828;2023-02-21T13:18:57;2.30;;;0.80;;
31114;SDS011;17764;47.152;9.828;2023-02-21T13:24:11;3.23;;;0.80;;
31114;SDS011;17764;47.152;9.828;2023-02-21T13:31:46;1.97;;;0.83;;
31114;SDS011;17764;47.152;9.828;2023-02-21T13:34:20;3.30;;;0.70;;
31114;SDS011;17764;47.152;9.828;2023-02-21T13:36:49;3.33;;;0.80;;
31114;SDS011;17764;47.152;9.828;2023-02-21T13:39:20;1.63;;;0.80;;
31114;SDS011;17764;47.152;9.828;2023-02-21T13:41:48;3.63;;;1.03;;
31114;SDS011;17764;47.152;9.828;2023-02-21T13:44:27;4.13;;;1.43;;
31114;SDS011;17764;47.152;9.828;2023-02-21T13:47:00;1.50;;;0.70;;
31114;SDS011;17764;47.152;9.828;2023-02-21T14:02:57;4.07;;;1.40;;
31114;SDS011;17764;47.152;9.828;2023-02-21T14:05:24;3.93;;;1.00;;
31114;SDS011;17764;47.152;9.828;2023-02-21T14:12:57;2.57;;;0.90;;
31114;SDS011;17764;47.152;9.828;2023-02-21T14:15:34;3.37;;;1.07;;
31114;SDS011;17764;47.152;9.828;2023-02-21T14:18:01;3.90;;;0.90;;
31114;SDS011;17764;47.152;9.828;2023-02-21T14:20:27;4.83;;;1.00;;
31114;SDS011;17764;47.152;9.828;2023-02-21T14:22:53;3.10;;;0.97;;
31114;SDS011;17764;47.152;9.828;2023-02-21T14:25:23;3.43;;;0.90;;
31114;SDS011;17764;47.152;9.828;2023-02-21T14:27:51;3.80;;;0.90;;
31114;SDS011;17764;47.152;9.828;2023-02-21T14:30:22;3.13;;;0.63;;
31114;SDS011;17764;47.152;9.828;2023-02-21T14:32:49;3.50;;;0.90;;
31114;SDS011;17764;47.152;9.828;2023-02-21T14:37:59;7.70;;;1.67;;
31114;SDS011;17764;47.152;9.828;2023-02-21T14:40:30;5.47;;;1.50;;
31114;SDS011;17764;47.152;9.828;2023-02-21T15:04:42;4.07;;;1.03;;
31114;SDS011;17764;47.152;9.828;2023-02-21T15:07:19;2.03;;;1.10;;
31114;SDS011;17764;47.152;9.828;2023-02-21T15:10:02;3.50;;;1.40;;
31114;SDS011;17764;47.152;9.828;2023-02-21T15:12:30;2.27;;;1.37;;
31114;SDS011;17764;47.152;9.828;2023-02-21T15:14:56;5.33;;;1.60;;
31114;SDS011;17764;47.152;9.828;2023-02-21T15:17:23;4.43;;;2.00;;
31114;SDS011;17764;47.152;9.828;2023-02-21T15:22:44;4.03;;;1.60;;
31114;SDS011;17764;47.152;9.828;2023-02-21T15:25:14;2.83;;;1.60;;
31114;SDS011;17764;47.152;9.828;2023-02-21T15:32:39;5.40;;;1.80;;
31114;SDS011;17764;47.152;9.828;2023-02-21T15:35:06;4.00;;;1.90;;
31114;SDS011;17764;47.152;9.828;2023-02-21T15:37:33;2.93;;;1.90;;
31114;SDS011;17764;47.152;9.828;2023-02-21T15:40:02;2.80;;;1.83;;
31114;SDS011;17764;47.152;9.828;2023-02-21T15:42:36;3.77;;;1.90;;
31114;SDS011;17764;47.152;9.828;2023-02-21T15:45:08;5.73;;;1.90;;
31114;SDS011;17764;47.152;9.828;2023-02-21T15:47:36;5.83;;;2.27;;
31114;SDS011;17764;47.152;9.828;2023-02-21T15:50:10;3.77;;;2.33;;
31114;SDS011;17764;47.152;9.828;2023-02-21T15:52:42;4.40;;;2.20;;
31114;SDS011;17764;47.152;9.828;2023-02-21T16:00:37;10.17;;;3.30;;
31114;SDS011;17764;47.152;9.828;2023-02-21T16:05:48;8.30;;;3.50;;
31114;SDS011;17764;47.152;9.828;2023-02-21T16:08:15;7.73;;;4.37;;
31114;SDS011;17764;47.152;9.828;2023-02-21T16:10:42;8.50;;;5.00;;
31114;SDS011;17764;47.152;9.828;2023-02-21T16:13:10;8.97;;;4.57;;
31114;SDS011;17764;47.152;9.828;2023-02-21T16:15:36;9.10;;;4.87;;
31114;SDS011;17764;47.152;9.828;2023-02-21T16:18:08;9.40;;;4.77;;
31114;SDS011;17764;47.152;9.828;2023-02-21T16:23:11;7.73;;;4.50;;
31114;SDS011;17764;47.152;9.828;2023-02-21T16:28:27;6.50;;;3.80;;
31114;SDS011;17764;47.152;9.828;2023-02-21T16:30:54;6.93;;;3.83;;
31114;SDS011;17764;47.152;9.828;2023-02-21T16:33:24;7.00;;;3.33;;
31114;SDS011;17764;47.152;9.828;2023-02-21T16:35:51;6.83;;;4.00;;
31114;SDS011;17764;47.152;9.828;2023-02-21T16:38:18;7.23;;;4.33;;
31114;SDS011;17764;47.152;9.828;2023-02-21T16:40:44;5.47;;;3.90;;
31114;SDS011;17764;47.152;9.828;2023-02-21T16:43:18;9.77;;;4.57;;
31114;SDS011;17764;47.152;9.828;2023-02-21T16:45:45;8.03;;;5.33;;
31114;SDS011;17764;47.152;9.828;2023-02-21T16:48:15;8.97;;;5.70;;
31114;SDS011;17764;47.152;9.828;2023-02-21T16:50:45;10.03;;;6.37;;
31114;SDS011;17764;47.152;9.828;2023-02-21T16:53:13;9.73;;;5.40;;
31114;SDS011;17764;47.152;9.828;2023-02-21T16:55:39;12.97;;;5.10;;
31114;SDS011;17764;47.152;9.828;2023-02-21T16:58:27;8.90;;;5.00;;
31114;SDS011;17764;47.152;9.828;2023-02-21T17:00:54;9.90;;;3.80;;
31114;SDS011;17764;47.152;9.828;2023-02-21T17:03:23;6.70;;;3.80;;
31114;SDS011;17764;47.152;9.828;2023-02-21T17:05:50;7.30;;;2.90;;
31114;SDS011;17764;47.152;9.828;2023-02-21T17:08:17;4.33;;;2.50;;
31114;SDS011;17764;47.152;9.828;2023-02-21T17:10:43;5.70;;;2.40;;
31114;SDS011;17764;47.152;9.828;2023-02-21T17:13:09;5.47;;;1.97;;
31114;SDS011;17764;47.152;9.828;2023-02-21T17:15:35;3.80;;;2.20;;
31114;SDS011;17764;47.152;9.828;2023-02-21T17:18:02;5.63;;;2.00;;
31114;SDS011;17764;47.152;9.828;2023-02-21T17:20:28;4.60;;;2.27;;
31114;SDS011;17764;47.152;9.828;2023-02-21T17:22:54;4.87;;;2.10;;
31114;SDS011;17764;47.152;9.828;2023-02-21T17:25:22;3.87;;;2.30;;
31114;SDS011;17764;47.152;9.828;2023-02-21T17:27:49;5.53;;;2.20;;
31114;SDS011;17764;47.152;9.828;2023-02-21T17:30:16;4.20;;;2.10;;
31114;SDS011;17764;47.152;9.828;2023-02-21T17:32:43;4.43;;;2.40;;
31114;SDS011;17764;47.152;9.828;2023-02-21T17:35:11;3.50;;;1.70;;
31114;SDS011;17764;47.152;9.828;2023-02-21T17:37:41;4.00;;;1.93;;
31114;SDS011;17764;47.152;9.828;2023-02-21T17:40:07;4.57;;;2.13;;
31114;SDS011;17764;47.152;9.828;2023-02-21T17:42:34;5.17;;;2.53;;
31114;SDS011;17764;47.152;9.828;2023-02-21T17:45:01;5.77;;;2.00;;
31114;SDS011;17764;47.152;9.828;2023-02-21T17:47:27;5.37;;;1.93;;
31114;SDS011;17764;47.152;9.828;2023-02-21T17:49:53;4.50;;;2.40;;
31114;SDS011;17764;47.152;9.828;2023-02-21T17:52:19;4.00;;;1.83;;